sensor_id;sensor_type;location;lat;lon;timestamp;P1;durP1;ratioP1;P2;durP2;ratioP2
11279;SDS011;5696;50.928;6.960;2022-07-23T05:33:56;19.88;;;17.85;;
11279;SDS011;5696;50.928;6.960;2022-07-23T05:36:21;20.38;;;18.35;;
11279;SDS011;5696;50.928;6.960;2022-07-23T05:38:47;19.10;;;16.95;;
11279;SDS011;5696;50.928;6.960;2022-07-23T05:41:14;21.60;;;18.27;;
11279;SDS011;5696;50.928;6.960;2022-07-23T05:43:40;19.77;;;17.67;;
11279;SDS011;5696;50.928;6.960;2022-07-23T05:46:06;21.52;;;17.33;;
11279;SDS011;5696;50.928;6.960;2022-07-23T05:48:31;20.00;;;17.90;;
11279;SDS011;5696;50.928;6.960;2022-07-23T05:50:57;22.13;;;17.90;;
11279;SDS011;5696;50.928;6.960;2022-07-23T05:53:23;21.70;;;17.70;;
11279;SDS011;5696;50.928;6.960;2022-07-23T05:55:48;19.23;;;17.23;;
11279;SDS011;5696;50.928;6.960;2022-07-23T05:58:14;20.67;;;17.33;;
11279;SDS011;5696;50.928;6.960;2022-07-23T06:00:39;22.40;;;17.60;;
11279;SDS011;5696;50.928;6.960;2022-07-23T06:03:05;21.40;;;17.73;;
11279;SDS011;5696;50.928;6.960;2022-07-23T06:05:31;17.75;;;14.55;;
11279;SDS011;5696;50.928;6.960;2022-07-23T06:07:57;17.60;;;15.50;;
11279;SDS011;5696;50.928;6.960;2022-07-23T06:10:22;17.70;;;15.48;;
11279;SDS011;5696;50.928;6.960;2022-07-23T06:12:48;16.85;;;15.13;;
11279;SDS011;5696;50.928;6.960;2022-07-23T06:15:14;17.52;;;15.38;;
11279;SDS011;5696;50.928;6.960;2022-07-23T06:17:39;16.13;;;14.45;;
11279;SDS011;5696;50.928;6.960;2022-07-23T06:20:09;16.20;;;14.45;;
11279;SDS011;5696;50.928;6.960;2022-07-23T06:22:35;15.95;;;13.82;;
11279;SDS011;5696;50.928;6.960;2022-07-23T06:25:02;16.75;;;15.15;;
11279;SDS011;5696;50.928;6.960;2022-07-23T06:27:28;16.15;;;14.52;;
11279;SDS011;5696;50.928;6.960;2022-07-23T06:29:53;16.35;;;14.57;;
11279;SDS011;5696;50.928;6.960;2022-07-23T06:32:19;15.50;;;14.10;;
11279;SDS011;5696;50.928;6.960;2022-07-23T06:34:45;15.13;;;13.55;;
11279;SDS011;5696;50.928;6.960;2022-07-23T06:37:11;15.30;;;13.75;;
11279;SDS011;5696;50.928;6.960;2022-07-23T06:39:36;14.10;;;12.73;;
11279;SDS011;5696;50.928;6.960;2022-07-23T06:42:02;16.42;;;13.85;;
11279;SDS011;5696;50.928;6.960;2022-07-23T06:44:28;14.18;;;12.68;;
11279;SDS011;5696;50.928;6.960;2022-07-23T06:46:54;14.52;;;13.13;;
11279;SDS011;5696;50.928;6.960;2022-07-23T06:49:19;14.30;;;12.90;;
11279;SDS011;5696;50.928;6.960;2022-07-23T06:51:45;14.23;;;12.85;;
11279;SDS011;5696;50.928;6.960;2022-07-23T06:54:11;14.57;;;13.02;;
11279;SDS011;5696;50.928;6.960;2022-07-23T06:56:36;13.50;;;11.98;;
11279;SDS011;5696;50.928;6.960;2022-07-23T06:59:02;12.95;;;11.75;;
11279;SDS011;5696;50.928;6.960;2022-07-23T07:01:28;12.98;;;11.52;;
11279;SDS011;5696;50.928;6.960;2022-07-23T07:03:55;12.50;;;9.75;;
11279;SDS011;5696;50.928;6.960;2022-07-23T07:06:20;12.35;;;11.00;;
11279;SDS011;5696;50.928;6.960;2022-07-23T07:08:46;12.35;;;11.07;;
11279;SDS011;5696;50.928;6.960;2022-07-23T07:11:12;11.73;;;10.50;;
11279;SDS011;5696;50.928;6.960;2022-07-23T07:13:37;11.98;;;10.88;;
11279;SDS011;5696;50.928;6.960;2022-07-23T07:16:03;12.32;;;11.10;;
11279;SDS011;5696;50.928;6.960;2022-07-23T07:18:29;12.73;;;11.43;;
11279;SDS011;5696;50.928;6.960;2022-07-23T07:20:56;11.98;;;10.75;;
11279;SDS011;5696;50.928;6.960;2022-07-23T07:23:22;11.40;;;10.23;;
11279;SDS011;5696;50.928;6.960;2022-07-23T07:25:48;12.10;;;10.88;;
11279;SDS011;5696;50.928;6.960;2022-07-23T07:28:13;12.50;;;11.27;;
11279;SDS011;5696;50.928;6.960;2022-07-23T07:30:39;11.13;;;10.07;;
11279;SDS011;5696;50.928;6.960;2022-07-23T07:33:05;12.40;;;10.23;;
11279;SDS011;5696;50.928;6.960;2022-07-23T07:35:30;10.98;;;9.88;;
11279;SDS011;5696;50.928;6.960;2022-07-23T07:37:57;12.88;;;11.60;;
11279;SDS011;5696;50.928;6.960;2022-07-23T07:40:24;12.20;;;11.00;;
11279;SDS011;5696;50.928;6.960;2022-07-23T07:42:51;12.85;;;11.75;;
11279;SDS011;5696;50.928;6.960;2022-07-23T07:45:19;12.30;;;11.07;;
11279;SDS011;5696;50.928;6.960;2022-07-23T07:47:45;16.92;;;15.23;;
11279;SDS011;5696;50.928;6.960;2022-07-23T07:50:11;16.52;;;14.82;;
11279;SDS011;5696;50.928;6.960;2022-07-23T07:52:37;16.77;;;14.82;;
11279;SDS011;5696;50.928;6.960;2022-07-23T07:55:04;14.75;;;13.20;;
11279;SDS011;5696;50.928;6.960;2022-07-23T07:57:33;15.52;;;13.88;;
11279;SDS011;5696;50.928;6.960;2022-07-23T07:59:59;16.27;;;14.57;;
11279;SDS011;5696;50.928;6.960;2022-07-23T08:02:25;16.48;;;14.77;;
11279;SDS011;5696;50.928;6.960;2022-07-23T08:04:50;18.00;;;16.13;;
11279;SDS011;5696;50.928;6.960;2022-07-23T08:07:16;16.10;;;14.60;;
11279;SDS011;5696;50.928;6.960;2022-07-23T08:09:42;16.50;;;13.57;;
11279;SDS011;5696;50.928;6.960;2022-07-23T08:12:07;14.23;;;12.32;;
11279;SDS011;5696;50.928;6.960;2022-07-23T08:14:33;14.23;;;12.82;;
11279;SDS011;5696;50.928;6.960;2022-07-23T08:16:59;13.98;;;12.50;;
11279;SDS011;5696;50.928;6.960;2022-07-23T08:19:25;14.73;;;13.38;;
11279;SDS011;5696;50.928;6.960;2022-07-23T08:21:50;15.73;;;14.15;;
11279;SDS011;5696;50.928;6.960;2022-07-23T08:24:16;15.75;;;14.10;;
11279;SDS011;5696;50.928;6.960;2022-07-23T08:26:42;15.45;;;14.05;;
11279;SDS011;5696;50.928;6.960;2022-07-23T08:29:07;14.18;;;12.88;;
11279;SDS011;5696;50.928;6.960;2022-07-23T08:31:33;15.48;;;14.00;;
11279;SDS011;5696;50.928;6.960;2022-07-23T08:33:59;15.30;;;13.80;;
11279;SDS011;5696;50.928;6.960;2022-07-23T08:36:25;14.63;;;13.27;;
11279;SDS011;5696;50.928;6.960;2022-07-23T08:38:53;14.27;;;12.98;;
11279;SDS011;5696;50.928;6.960;2022-07-23T08:41:19;14.93;;;13.52;;
11279;SDS011;5696;50.928;6.960;2022-07-23T08:43:45;13.98;;;12.77;;
11279;SDS011;5696;50.928;6.960;2022-07-23T08:46:11;14.63;;;13.43;;
11279;SDS011;5696;50.928;6.960;2022-07-23T08:48:38;13.57;;;12.40;;
11279;SDS011;5696;50.928;6.960;2022-07-23T08:51:05;13.23;;;11.93;;
11279;SDS011;5696;50.928;6.960;2022-07-23T08:53:32;14.02;;;12.70;;
11279;SDS011;5696;50.928;6.960;2022-07-23T08:56:01;13.98;;;12.82;;
11279;SDS011;5696;50.928;6.960;2022-07-23T08:58:28;13.80;;;12.65;;
11279;SDS011;5696;50.928;6.960;2022-07-23T09:00:55;13.73;;;12.63;;
11279;SDS011;5696;50.928;6.960;2022-07-23T09:03:25;13.93;;;12.80;;
11279;SDS011;5696;50.928;6.960;2022-07-23T09:05:53;13.48;;;12.27;;
11279;SDS011;5696;50.928;6.960;2022-07-23T09:08:23;13.63;;;12.35;;
11279;SDS011;5696;50.928;6.960;2022-07-23T09:10:52;12.93;;;11.90;;
11279;SDS011;5696;50.928;6.960;2022-07-23T09:13:32;13.60;;;12.30;;
11279;SDS011;5696;50.928;6.960;2022-07-23T09:16:01;13.15;;;12.05;;
11279;SDS011;5696;50.928;6.960;2022-07-23T09:18:31;14.25;;;12.93;;
11279;SDS011;5696;50.928;6.960;2022-07-23T09:21:06;12.75;;;11.68;;
11279;SDS011;5696;50.928;6.960;2022-07-23T09:23:46;13.63;;;12.38;;
11279;SDS011;5696;50.928;6.960;2022-07-23T09:26:17;13.38;;;12.15;;
11279;SDS011;5696;50.928;6.960;2022-07-23T09:31:23;13.35;;;12.18;;
11279;SDS011;5696;50.928;6.960;2022-07-23T09:33:50;12.75;;;11.52;;
11279;SDS011;5696;50.928;6.960;2022-07-23T09:36:29;14.27;;;13.07;;
11279;SDS011;5696;50.928;6.960;2022-07-23T09:38:55;15.27;;;13.75;;
11279;SDS011;5696;50.928;6.960;2022-07-23T09:41:20;14.85;;;13.50;;
11279;SDS011;5696;50.928;6.960;2022-07-23T09:43:46;14.50;;;13.20;;
11279;SDS011;5696;50.928;6.960;2022-07-23T09:48:54;15.32;;;13.80;;
11279;SDS011;5696;50.928;6.960;2022-07-23T09:51:24;15.02;;;13.63;;
11279;SDS011;5696;50.928;6.960;2022-07-23T09:54:01;15.88;;;14.40;;
11279;SDS011;5696;50.928;6.960;2022-07-23T09:56:27;16.95;;;15.45;;
11279;SDS011;5696;50.928;6.960;2022-07-23T09:58:54;15.85;;;14.35;;
11279;SDS011;5696;50.928;6.960;2022-07-23T10:01:31;18.17;;;16.52;;
11279;SDS011;5696;50.928;6.960;2022-07-23T10:03:58;17.00;;;15.32;;
11279;SDS011;5696;50.928;6.960;2022-07-23T10:06:25;16.90;;;15.40;;
11279;SDS011;5696;50.928;6.960;2022-07-23T10:08:53;16.98;;;15.15;;
11279;SDS011;5696;50.928;6.960;2022-07-23T10:11:23;19.20;;;17.35;;
11279;SDS011;5696;50.928;6.960;2022-07-23T10:13:49;17.80;;;16.10;;
11279;SDS011;5696;50.928;6.960;2022-07-23T10:16:20;17.60;;;16.02;;
11279;SDS011;5696;50.928;6.960;2022-07-23T10:18:47;16.73;;;15.10;;
11279;SDS011;5696;50.928;6.960;2022-07-23T10:21:16;14.93;;;13.43;;
11279;SDS011;5696;50.928;6.960;2022-07-23T10:24:01;12.77;;;11.70;;
11279;SDS011;5696;50.928;6.960;2022-07-23T10:26:58;12.13;;;10.90;;
11279;SDS011;5696;50.928;6.960;2022-07-23T10:32:56;14.25;;;12.85;;
11279;SDS011;5696;50.928;6.960;2022-07-23T10:35:37;15.05;;;13.77;;
11279;SDS011;5696;50.928;6.960;2022-07-23T10:38:28;14.25;;;12.75;;
11279;SDS011;5696;50.928;6.960;2022-07-23T10:41:03;11.38;;;10.38;;
11279;SDS011;5696;50.928;6.960;2022-07-23T10:43:30;12.57;;;11.25;;
11279;SDS011;5696;50.928;6.960;2022-07-23T10:45:56;11.68;;;10.65;;
11279;SDS011;5696;50.928;6.960;2022-07-23T10:54:50;9.32;;;8.52;;
11279;SDS011;5696;50.928;6.960;2022-07-23T10:57:20;9.55;;;8.50;;
11279;SDS011;5696;50.928;6.960;2022-07-23T11:00:22;10.48;;;9.48;;
11279;SDS011;5696;50.928;6.960;2022-07-23T11:02:43;10.10;;;9.25;;
11279;SDS011;5696;50.928;6.960;2022-07-23T11:05:12;11.25;;;10.18;;
11279;SDS011;5696;50.928;6.960;2022-07-23T11:34:34;11.07;;;10.18;;
11279;SDS011;5696;50.928;6.960;2022-07-23T11:37:03;11.10;;;9.95;;
11279;SDS011;5696;50.928;6.960;2022-07-23T11:39:30;8.88;;;8.18;;
11279;SDS011;5696;50.928;6.960;2022-07-23T11:41:57;8.10;;;7.40;;
11279;SDS011;5696;50.928;6.960;2022-07-23T11:44:30;10.23;;;9.30;;
11279;SDS011;5696;50.928;6.960;2022-07-23T11:47:03;9.40;;;8.50;;
11279;SDS011;5696;50.928;6.960;2022-07-23T11:49:30;8.25;;;7.65;;
11279;SDS011;5696;50.928;6.960;2022-07-23T11:54:32;9.55;;;8.65;;
11279;SDS011;5696;50.928;6.960;2022-07-23T11:57:00;9.98;;;9.07;;
11279;SDS011;5696;50.928;6.960;2022-07-23T11:59:27;8.88;;;8.18;;
11279;SDS011;5696;50.928;6.960;2022-07-23T12:01:57;7.45;;;6.70;;
11279;SDS011;5696;50.928;6.960;2022-07-23T12:04:25;8.30;;;7.50;;
11279;SDS011;5696;50.928;6.960;2022-07-23T12:07:02;7.30;;;6.25;;
11279;SDS011;5696;50.928;6.960;2022-07-23T12:09:27;8.07;;;7.38;;
11279;SDS011;5696;50.928;6.960;2022-07-23T12:11:57;10.90;;;9.88;;
11279;SDS011;5696;50.928;6.960;2022-07-23T12:14:23;9.95;;;9.05;;
11279;SDS011;5696;50.928;6.960;2022-07-23T12:17:06;9.85;;;8.93;;
11279;SDS011;5696;50.928;6.960;2022-07-23T12:19:32;9.00;;;8.32;;
11279;SDS011;5696;50.928;6.960;2022-07-23T12:21:58;11.00;;;10.00;;
11279;SDS011;5696;50.928;6.960;2022-07-23T12:24:24;10.68;;;9.60;;
11279;SDS011;5696;50.928;6.960;2022-07-23T12:27:08;8.93;;;8.13;;
11279;SDS011;5696;50.928;6.960;2022-07-23T12:29:38;9.55;;;8.60;;
11279;SDS011;5696;50.928;6.960;2022-07-23T12:32:26;8.10;;;7.40;;
11279;SDS011;5696;50.928;6.960;2022-07-23T12:35:02;6.25;;;5.80;;
11279;SDS011;5696;50.928;6.960;2022-07-23T12:37:34;6.22;;;5.45;;
11279;SDS011;5696;50.928;6.960;2022-07-23T12:42:48;6.50;;;5.70;;
11279;SDS011;5696;50.928;6.960;2022-07-23T12:45:15;5.63;;;5.13;;
11279;SDS011;5696;50.928;6.960;2022-07-23T12:47:52;5.43;;;4.90;;
11279;SDS011;5696;50.928;6.960;2022-07-23T12:51:04;5.22;;;4.72;;
11279;SDS011;5696;50.928;6.960;2022-07-23T12:53:36;5.30;;;4.82;;
11279;SDS011;5696;50.928;6.960;2022-07-23T12:56:10;4.53;;;4.22;;
11279;SDS011;5696;50.928;6.960;2022-07-23T12:58:41;4.95;;;4.55;;
11279;SDS011;5696;50.928;6.960;2022-07-23T13:01:39;5.53;;;4.97;;
11279;SDS011;5696;50.928;6.960;2022-07-23T13:04:06;6.00;;;5.50;;
11279;SDS011;5696;50.928;6.960;2022-07-23T13:06:37;5.13;;;4.63;;
11279;SDS011;5696;50.928;6.960;2022-07-23T13:09:07;5.72;;;5.22;;
11279;SDS011;5696;50.928;6.960;2022-07-23T13:11:34;4.88;;;4.47;;
11279;SDS011;5696;50.928;6.960;2022-07-23T13:14:00;4.50;;;4.10;;
11279;SDS011;5696;50.928;6.960;2022-07-23T13:16:29;6.15;;;4.50;;
11279;SDS011;5696;50.928;6.960;2022-07-23T13:18:56;5.45;;;4.28;;
11279;SDS011;5696;50.928;6.960;2022-07-23T13:21:23;5.70;;;4.30;;
11279;SDS011;5696;50.928;6.960;2022-07-23T13:23:50;5.47;;;4.30;;
11279;SDS011;5696;50.928;6.960;2022-07-23T13:26:16;4.75;;;4.20;;
11279;SDS011;5696;50.928;6.960;2022-07-23T13:28:42;6.00;;;4.30;;
11279;SDS011;5696;50.928;6.960;2022-07-23T13:31:07;4.43;;;4.03;;
11279;SDS011;5696;50.928;6.960;2022-07-23T13:33:33;4.63;;;4.07;;
11279;SDS011;5696;50.928;6.960;2022-07-23T13:35:59;4.72;;;4.32;;
11279;SDS011;5696;50.928;6.960;2022-07-23T13:38:25;4.45;;;3.97;;
11279;SDS011;5696;50.928;6.960;2022-07-23T13:40:51;4.40;;;4.00;;
11279;SDS011;5696;50.928;6.960;2022-07-23T13:43:18;4.40;;;4.07;;
11279;SDS011;5696;50.928;6.960;2022-07-23T13:45:45;4.57;;;4.18;;
11279;SDS011;5696;50.928;6.960;2022-07-23T13:48:12;4.80;;;4.28;;
11279;SDS011;5696;50.928;6.960;2022-07-23T13:50:40;3.47;;;3.17;;
11279;SDS011;5696;50.928;6.960;2022-07-23T13:53:07;3.90;;;3.50;;
11279;SDS011;5696;50.928;6.960;2022-07-23T13:55:36;4.05;;;3.50;;
11279;SDS011;5696;50.928;6.960;2022-07-23T13:58:02;4.25;;;3.40;;
11279;SDS011;5696;50.928;6.960;2022-07-23T14:00:29;4.05;;;3.65;;
11279;SDS011;5696;50.928;6.960;2022-07-23T14:02:56;4.15;;;3.58;;
11279;SDS011;5696;50.928;6.960;2022-07-23T14:05:23;4.43;;;3.85;;
11279;SDS011;5696;50.928;6.960;2022-07-23T14:07:49;3.67;;;3.38;;
11279;SDS011;5696;50.928;6.960;2022-07-23T14:10:16;4.47;;;4.18;;
11279;SDS011;5696;50.928;6.960;2022-07-23T14:12:44;3.95;;;3.55;;
11279;SDS011;5696;50.928;6.960;2022-07-23T14:15:11;3.60;;;3.30;;
11279;SDS011;5696;50.928;6.960;2022-07-23T14:17:38;5.28;;;4.63;;
11279;SDS011;5696;50.928;6.960;2022-07-23T14:20:05;4.03;;;3.72;;
11279;SDS011;5696;50.928;6.960;2022-07-23T14:22:32;4.75;;;4.10;;
11279;SDS011;5696;50.928;6.960;2022-07-23T14:24:57;3.95;;;3.33;;
11279;SDS011;5696;50.928;6.960;2022-07-23T14:27:24;3.90;;;3.50;;
11279;SDS011;5696;50.928;6.960;2022-07-23T14:29:51;4.10;;;3.70;;
11279;SDS011;5696;50.928;6.960;2022-07-23T14:32:17;3.83;;;3.53;;
11279;SDS011;5696;50.928;6.960;2022-07-23T14:34:42;3.75;;;3.45;;
11279;SDS011;5696;50.928;6.960;2022-07-23T14:37:09;5.15;;;3.50;;
11279;SDS011;5696;50.928;6.960;2022-07-23T14:39:36;3.50;;;3.30;;
11279;SDS011;5696;50.928;6.960;2022-07-23T14:42:02;4.65;;;3.78;;
11279;SDS011;5696;50.928;6.960;2022-07-23T14:44:28;3.20;;;2.97;;
11279;SDS011;5696;50.928;6.960;2022-07-23T14:46:54;4.03;;;3.72;;
11279;SDS011;5696;50.928;6.960;2022-07-23T14:49:21;3.53;;;3.22;;
11279;SDS011;5696;50.928;6.960;2022-07-23T14:51:46;4.00;;;3.35;;
11279;SDS011;5696;50.928;6.960;2022-07-23T14:54:12;4.43;;;4.03;;
11279;SDS011;5696;50.928;6.960;2022-07-23T14:56:39;4.15;;;3.75;;
11279;SDS011;5696;50.928;6.960;2022-07-23T14:59:06;3.83;;;3.53;;
11279;SDS011;5696;50.928;6.960;2022-07-23T15:01:32;5.30;;;3.40;;
11279;SDS011;5696;50.928;6.960;2022-07-23T15:03:58;3.50;;;3.30;;
11279;SDS011;5696;50.928;6.960;2022-07-23T15:06:24;3.53;;;3.22;;
11279;SDS011;5696;50.928;6.960;2022-07-23T15:08:50;4.93;;;3.70;;
11279;SDS011;5696;50.928;6.960;2022-07-23T15:11:16;5.03;;;3.60;;
11279;SDS011;5696;50.928;6.960;2022-07-23T15:13:42;3.65;;;3.35;;
11279;SDS011;5696;50.928;6.960;2022-07-23T15:16:08;3.72;;;3.42;;
11279;SDS011;5696;50.928;6.960;2022-07-23T15:18:34;4.18;;;3.75;;
11279;SDS011;5696;50.928;6.960;2022-07-23T15:20:59;4.15;;;3.40;;
11279;SDS011;5696;50.928;6.960;2022-07-23T15:23:26;3.75;;;3.38;;
11279;SDS011;5696;50.928;6.960;2022-07-23T15:25:53;4.20;;;3.55;;
11279;SDS011;5696;50.928;6.960;2022-07-23T15:28:20;3.80;;;3.50;;
11279;SDS011;5696;50.928;6.960;2022-07-23T15:30:46;4.15;;;3.33;;
11279;SDS011;5696;50.928;6.960;2022-07-23T15:33:12;4.32;;;4.03;;
11279;SDS011;5696;50.928;6.960;2022-07-23T15:35:38;5.53;;;3.70;;
11279;SDS011;5696;50.928;6.960;2022-07-23T15:38:03;3.80;;;3.50;;
11279;SDS011;5696;50.928;6.960;2022-07-23T15:40:29;4.05;;;3.75;;
11279;SDS011;5696;50.928;6.960;2022-07-23T15:42:54;8.68;;;6.18;;
11279;SDS011;5696;50.928;6.960;2022-07-23T15:45:20;4.68;;;3.58;;
11279;SDS011;5696;50.928;6.960;2022-07-23T15:47:46;3.92;;;3.55;;
11279;SDS011;5696;50.928;6.960;2022-07-23T15:50:13;4.03;;;3.72;;
11279;SDS011;5696;50.928;6.960;2022-07-23T15:52:39;3.83;;;3.40;;
11279;SDS011;5696;50.928;6.960;2022-07-23T15:55:05;5.75;;;5.25;;
11279;SDS011;5696;50.928;6.960;2022-07-23T15:57:31;4.63;;;3.60;;
11279;SDS011;5696;50.928;6.960;2022-07-23T15:59:57;3.65;;;3.20;;
11279;SDS011;5696;50.928;6.960;2022-07-23T16:02:23;4.63;;;3.15;;
11279;SDS011;5696;50.928;6.960;2022-07-23T16:04:49;4.55;;;3.58;;
11279;SDS011;5696;50.928;6.960;2022-07-23T16:07:16;5.45;;;4.00;;
11279;SDS011;5696;50.928;6.960;2022-07-23T16:09:42;3.60;;;3.30;;
11279;SDS011;5696;50.928;6.960;2022-07-23T16:12:08;5.78;;;3.50;;
11279;SDS011;5696;50.928;6.960;2022-07-23T16:14:34;3.97;;;3.55;;
11279;SDS011;5696;50.928;6.960;2022-07-23T16:17:00;4.47;;;4.05;;
11279;SDS011;5696;50.928;6.960;2022-07-23T16:19:26;4.03;;;3.63;;
11279;SDS011;5696;50.928;6.960;2022-07-23T16:21:52;4.15;;;3.30;;
11279;SDS011;5696;50.928;6.960;2022-07-23T16:24:17;3.55;;;3.10;;
11279;SDS011;5696;50.928;6.960;2022-07-23T16:26:44;3.30;;;3.00;;
11279;SDS011;5696;50.928;6.960;2022-07-23T16:29:09;4.30;;;3.30;;
11279;SDS011;5696;50.928;6.960;2022-07-23T16:31:36;3.75;;;3.45;;
11279;SDS011;5696;50.928;6.960;2022-07-23T16:34:02;3.65;;;3.35;;
11279;SDS011;5696;50.928;6.960;2022-07-23T16:36:28;3.78;;;3.47;;
11279;SDS011;5696;50.928;6.960;2022-07-23T16:38:54;3.60;;;3.30;;
11279;SDS011;5696;50.928;6.960;2022-07-23T16:41:20;4.30;;;3.40;;
11279;SDS011;5696;50.928;6.960;2022-07-23T16:43:46;4.00;;;3.40;;
11279;SDS011;5696;50.928;6.960;2022-07-23T16:46:12;3.75;;;3.45;;
11279;SDS011;5696;50.928;6.960;2022-07-23T16:48:38;3.17;;;2.97;;
11279;SDS011;5696;50.928;6.960;2022-07-23T16:51:05;3.67;;;3.38;;
11279;SDS011;5696;50.928;6.960;2022-07-23T16:53:30;4.13;;;3.33;;
11279;SDS011;5696;50.928;6.960;2022-07-23T16:55:56;3.33;;;3.13;;
11279;SDS011;5696;50.928;6.960;2022-07-23T16:58:22;3.50;;;3.20;;
11279;SDS011;5696;50.928;6.960;2022-07-23T17:00:47;4.13;;;3.45;;
11279;SDS011;5696;50.928;6.960;2022-07-23T17:03:13;4.88;;;3.50;;
11279;SDS011;5696;50.928;6.960;2022-07-23T17:05:39;3.58;;;3.28;;
11279;SDS011;5696;50.928;6.960;2022-07-23T17:08:04;3.60;;;3.30;;
11279;SDS011;5696;50.928;6.960;2022-07-23T17:10:30;3.92;;;3.45;;
11279;SDS011;5696;50.928;6.960;2022-07-23T17:12:56;3.63;;;3.22;;
11279;SDS011;5696;50.928;6.960;2022-07-23T17:15:23;5.07;;;3.03;;
11279;SDS011;5696;50.928;6.960;2022-07-23T17:17:49;3.70;;;3.40;;
11279;SDS011;5696;50.928;6.960;2022-07-23T17:20:15;6.55;;;6.03;;
11279;SDS011;5696;50.928;6.960;2022-07-23T17:22:41;3.40;;;3.20;;
11279;SDS011;5696;50.928;6.960;2022-07-23T17:25:10;3.70;;;3.40;;
11279;SDS011;5696;50.928;6.960;2022-07-23T17:27:41;3.63;;;3.33;;
11279;SDS011;5696;50.928;6.960;2022-07-23T17:30:08;3.55;;;3.25;;
11279;SDS011;5696;50.928;6.960;2022-07-23T17:32:34;4.75;;;3.42;;
11279;SDS011;5696;50.928;6.960;2022-07-23T17:35:00;4.05;;;3.53;;
11279;SDS011;5696;50.928;6.960;2022-07-23T17:37:28;3.38;;;3.08;;
11279;SDS011;5696;50.928;6.960;2022-07-23T17:39:53;3.72;;;3.40;;
11279;SDS011;5696;50.928;6.960;2022-07-23T17:42:19;20.00;;;16.63;;
11279;SDS011;5696;50.928;6.960;2022-07-23T17:44:45;4.00;;;3.60;;
11279;SDS011;5696;50.928;6.960;2022-07-23T17:47:11;4.05;;;3.58;;
11279;SDS011;5696;50.928;6.960;2022-07-23T17:49:36;4.80;;;3.45;;
11279;SDS011;5696;50.928;6.960;2022-07-23T17:52:03;4.68;;;3.22;;
11279;SDS011;5696;50.928;6.960;2022-07-23T17:54:29;3.83;;;3.30;;
11279;SDS011;5696;50.928;6.960;2022-07-23T17:56:56;3.55;;;3.25;;
11279;SDS011;5696;50.928;6.960;2022-07-23T17:59:22;4.53;;;3.40;;
11279;SDS011;5696;50.928;6.960;2022-07-23T18:01:48;3.90;;;3.40;;
11279;SDS011;5696;50.928;6.960;2022-07-23T18:04:13;3.53;;;3.28;;
11279;SDS011;5696;50.928;6.960;2022-07-23T18:06:42;4.50;;;3.33;;
11279;SDS011;5696;50.928;6.960;2022-07-23T18:09:08;4.03;;;3.42;;
11279;SDS011;5696;50.928;6.960;2022-07-23T18:11:35;3.78;;;3.47;;
11279;SDS011;5696;50.928;6.960;2022-07-23T18:14:01;30.45;;;22.67;;
11279;SDS011;5696;50.928;6.960;2022-07-23T18:16:28;3.88;;;3.58;;
11279;SDS011;5696;50.928;6.960;2022-07-23T18:18:54;4.95;;;3.70;;
11279;SDS011;5696;50.928;6.960;2022-07-23T18:21:20;3.63;;;3.33;;
11279;SDS011;5696;50.928;6.960;2022-07-23T18:23:46;3.67;;;3.42;;
11279;SDS011;5696;50.928;6.960;2022-07-23T18:26:12;4.60;;;3.50;;
11279;SDS011;5696;50.928;6.960;2022-07-23T18:28:38;3.63;;;3.33;;
11279;SDS011;5696;50.928;6.960;2022-07-23T18:31:04;4.43;;;3.88;;
11279;SDS011;5696;50.928;6.960;2022-07-23T18:33:31;3.45;;;3.25;;
11279;SDS011;5696;50.928;6.960;2022-07-23T18:35:57;3.58;;;3.10;;
11279;SDS011;5696;50.928;6.960;2022-07-23T18:38:23;3.13;;;2.85;;
11279;SDS011;5696;50.928;6.960;2022-07-23T18:40:49;3.83;;;3.45;;
11279;SDS011;5696;50.928;6.960;2022-07-23T18:43:16;4.05;;;3.30;;
11279;SDS011;5696;50.928;6.960;2022-07-23T18:45:42;3.72;;;3.42;;
11279;SDS011;5696;50.928;6.960;2022-07-23T18:48:08;3.85;;;3.35;;
11279;SDS011;5696;50.928;6.960;2022-07-23T18:50:34;5.50;;;3.58;;
11279;SDS011;5696;50.928;6.960;2022-07-23T18:53:02;3.65;;;3.35;;
11279;SDS011;5696;50.928;6.960;2022-07-23T18:55:29;4.70;;;4.28;;
11279;SDS011;5696;50.928;6.960;2022-07-23T18:57:55;4.70;;;3.75;;
11279;SDS011;5696;50.928;6.960;2022-07-23T19:00:26;7.28;;;6.53;;
11279;SDS011;5696;50.928;6.960;2022-07-23T19:02:53;4.28;;;3.83;;
11279;SDS011;5696;50.928;6.960;2022-07-23T19:05:18;4.90;;;4.25;;
11279;SDS011;5696;50.928;6.960;2022-07-23T19:07:45;4.43;;;3.97;;
11279;SDS011;5696;50.928;6.960;2022-07-23T19:10:10;5.10;;;4.55;;
11279;SDS011;5696;50.928;6.960;2022-07-23T19:12:36;4.40;;;4.00;;
11279;SDS011;5696;50.928;6.960;2022-07-23T19:15:03;6.18;;;5.15;;
11279;SDS011;5696;50.928;6.960;2022-07-23T19:17:30;4.38;;;4.00;;
11279;SDS011;5696;50.928;6.960;2022-07-23T19:19:56;4.88;;;4.35;;
11279;SDS011;5696;50.928;6.960;2022-07-23T19:22:22;4.50;;;4.10;;
11279;SDS011;5696;50.928;6.960;2022-07-23T19:24:48;5.10;;;4.38;;
11279;SDS011;5696;50.928;6.960;2022-07-23T19:27:14;4.03;;;3.67;;
11279;SDS011;5696;50.928;6.960;2022-07-23T19:29:39;4.60;;;4.20;;
11279;SDS011;5696;50.928;6.960;2022-07-23T19:32:05;4.85;;;4.38;;
11279;SDS011;5696;50.928;6.960;2022-07-23T19:34:31;4.32;;;3.90;;
11279;SDS011;5696;50.928;6.960;2022-07-23T19:36:59;3.72;;;3.47;;
11279;SDS011;5696;50.928;6.960;2022-07-23T19:39:25;4.10;;;3.80;;
11279;SDS011;5696;50.928;6.960;2022-07-23T19:41:51;5.03;;;4.57;;
11279;SDS011;5696;50.928;6.960;2022-07-23T19:44:17;4.05;;;3.67;;
11279;SDS011;5696;50.928;6.960;2022-07-23T19:46:43;4.45;;;4.15;;
11279;SDS011;5696;50.928;6.960;2022-07-23T19:49:09;4.88;;;4.47;;
11279;SDS011;5696;50.928;6.960;2022-07-23T19:51:34;4.55;;;4.18;;
11279;SDS011;5696;50.928;6.960;2022-07-23T19:54:00;4.30;;;3.90;;
11279;SDS011;5696;50.928;6.960;2022-07-23T19:56:25;6.40;;;5.80;;
11279;SDS011;5696;50.928;6.960;2022-07-23T19:58:51;4.97;;;4.57;;
11279;SDS011;5696;50.928;6.960;2022-07-23T20:01:17;4.20;;;3.88;;
11279;SDS011;5696;50.928;6.960;2022-07-23T20:03:43;4.78;;;4.40;;
11279;SDS011;5696;50.928;6.960;2022-07-23T20:06:09;5.20;;;4.80;;
11279;SDS011;5696;50.928;6.960;2022-07-23T20:08:34;5.40;;;5.00;;
11279;SDS011;5696;50.928;6.960;2022-07-23T20:11:00;5.03;;;4.53;;
11279;SDS011;5696;50.928;6.960;2022-07-23T20:13:26;5.28;;;4.78;;
11279;SDS011;5696;50.928;6.960;2022-07-23T20:15:52;6.18;;;5.00;;
11279;SDS011;5696;50.928;6.960;2022-07-23T20:18:18;5.55;;;4.93;;
11279;SDS011;5696;50.928;6.960;2022-07-23T20:20:44;5.32;;;4.82;;
11279;SDS011;5696;50.928;6.960;2022-07-23T20:23:10;6.07;;;5.20;;
11279;SDS011;5696;50.928;6.960;2022-07-23T20:25:36;6.97;;;6.35;;
11279;SDS011;5696;50.928;6.960;2022-07-23T20:28:04;6.22;;;5.70;;
11279;SDS011;5696;50.928;6.960;2022-07-23T20:30:30;5.72;;;5.22;;
11279;SDS011;5696;50.928;6.960;2022-07-23T20:32:56;6.05;;;5.55;;
11279;SDS011;5696;50.928;6.960;2022-07-23T20:35:24;5.82;;;5.30;;
11279;SDS011;5696;50.928;6.960;2022-07-23T20:37:50;5.63;;;5.00;;
11279;SDS011;5696;50.928;6.960;2022-07-23T20:40:16;4.97;;;4.57;;
11279;SDS011;5696;50.928;6.960;2022-07-23T20:42:42;5.05;;;4.57;;
11279;SDS011;5696;50.928;6.960;2022-07-23T20:45:07;5.07;;;4.60;;
11279;SDS011;5696;50.928;6.960;2022-07-23T20:47:34;6.10;;;5.35;;
11279;SDS011;5696;50.928;6.960;2022-07-23T20:49:59;5.72;;;5.18;;
11279;SDS011;5696;50.928;6.960;2022-07-23T20:52:25;5.88;;;5.38;;
11279;SDS011;5696;50.928;6.960;2022-07-23T20:54:51;5.45;;;4.90;;
11279;SDS011;5696;50.928;6.960;2022-07-23T20:57:17;5.40;;;5.00;;
11279;SDS011;5696;50.928;6.960;2022-07-23T20:59:42;5.93;;;5.32;;
11279;SDS011;5696;50.928;6.960;2022-07-23T21:02:08;6.00;;;5.40;;
11279;SDS011;5696;50.928;6.960;2022-07-23T21:04:34;5.97;;;5.38;;
11279;SDS011;5696;50.928;6.960;2022-07-23T21:06:59;5.53;;;5.05;;
11279;SDS011;5696;50.928;6.960;2022-07-23T21:09:25;5.95;;;5.38;;
11279;SDS011;5696;50.928;6.960;2022-07-23T21:11:51;7.40;;;6.72;;